sensor_id;sensor_type;location;lat;lon;timestamp;P1;durP1;ratioP1;P2;durP2;ratioP2
60478;SDS011;46321;48.398;11.754;2023-04-25T00:00:56;7.35;;;3.25;;
60478;SDS011;46321;48.398;11.754;2023-04-25T00:03:22;7.15;;;3.30;;
60478;SDS011;46321;48.398;11.754;2023-04-25T00:05:50;5.22;;;3.13;;
60478;SDS011;46321;48.398;11.754;2023-04-25T00:08:16;7.07;;;3.53;;
60478;SDS011;46321;48.398;11.754;2023-04-25T00:10:42;6.05;;;3.47;;
60478;SDS011;46321;48.398;11.754;2023-04-25T00:13:07;5.55;;;3.30;;
60478;SDS011;46321;48.398;11.754;2023-04-25T00:15:33;5.97;;;3.65;;
60478;SDS011;46321;48.398;11.754;2023-04-25T00:17:58;6.03;;;3.35;;
60478;SDS011;46321;48.398;11.754;2023-04-25T00:20:23;4.70;;;3.30;;
60478;SDS011;46321;48.398;11.754;2023-04-25T00:22:49;4.68;;;3.05;;
60478;SDS011;46321;48.398;11.754;2023-04-25T00:25:15;4.43;;;3.22;;
60478;SDS011;46321;48.398;11.754;2023-04-25T00:27:41;3.80;;;2.97;;
60478;SDS011;46321;48.398;11.754;2023-04-25T00:30:06;4.45;;;3.03;;
60478;SDS011;46321;48.398;11.754;2023-04-25T00:32:32;6.15;;;3.20;;
60478;SDS011;46321;48.398;11.754;2023-04-25T00:34:57;4.95;;;3.10;;
60478;SDS011;46321;48.398;11.754;2023-04-25T00:37:23;5.28;;;3.30;;
60478;SDS011;46321;48.398;11.754;2023-04-25T00:39:48;6.53;;;3.35;;
60478;SDS011;46321;48.398;11.754;2023-04-25T00:42:14;5.35;;;3.50;;
60478;SDS011;46321;48.398;11.754;2023-04-25T00:44:40;6.57;;;3.67;;
60478;SDS011;46321;48.398;11.754;2023-04-25T00:47:06;7.40;;;3.80;;
60478;SDS011;46321;48.398;11.754;2023-04-25T00:49:31;6.45;;;3.65;;
60478;SDS011;46321;48.398;11.754;2023-04-25T00:51:57;5.50;;;3.63;;
60478;SDS011;46321;48.398;11.754;2023-04-25T00:54:22;4.63;;;3.20;;
60478;SDS011;46321;48.398;11.754;2023-04-25T00:56:48;5.97;;;3.42;;
60478;SDS011;46321;48.398;11.754;2023-04-25T00:59:13;6.88;;;3.05;;
60478;SDS011;46321;48.398;11.754;2023-04-25T01:01:40;4.95;;;3.50;;
60478;SDS011;46321;48.398;11.754;2023-04-25T01:04:06;7.28;;;3.15;;
60478;SDS011;46321;48.398;11.754;2023-04-25T01:06:32;4.35;;;3.05;;
60478;SDS011;46321;48.398;11.754;2023-04-25T01:08:57;4.70;;;2.90;;
60478;SDS011;46321;48.398;11.754;2023-04-25T01:11:24;5.03;;;3.28;;
60478;SDS011;46321;48.398;11.754;2023-04-25T01:13:49;5.50;;;2.97;;
60478;SDS011;46321;48.398;11.754;2023-04-25T01:16:15;5.07;;;3.05;;
60478;SDS011;46321;48.398;11.754;2023-04-25T01:18:40;3.65;;;2.65;;
60478;SDS011;46321;48.398;11.754;2023-04-25T01:21:11;5.75;;;2.90;;
60478;SDS011;46321;48.398;11.754;2023-04-25T01:23:38;3.55;;;2.55;;
60478;SDS011;46321;48.398;11.754;2023-04-25T01:26:05;7.30;;;3.67;;
60478;SDS011;46321;48.398;11.754;2023-04-25T01:28:33;6.00;;;3.83;;
60478;SDS011;46321;48.398;11.754;2023-04-25T01:30:59;4.70;;;2.85;;
60478;SDS011;46321;48.398;11.754;2023-04-25T01:33:24;3.65;;;3.00;;
60478;SDS011;46321;48.398;11.754;2023-04-25T01:35:50;4.78;;;2.58;;
60478;SDS011;46321;48.398;11.754;2023-04-25T01:38:15;3.65;;;2.80;;
60478;SDS011;46321;48.398;11.754;2023-04-25T01:40:41;5.25;;;2.90;;
60478;SDS011;46321;48.398;11.754;2023-04-25T01:43:07;3.95;;;2.80;;
60478;SDS011;46321;48.398;11.754;2023-04-25T01:45:35;4.22;;;2.92;;
60478;SDS011;46321;48.398;11.754;2023-04-25T01:48:04;4.95;;;2.88;;
60478;SDS011;46321;48.398;11.754;2023-04-25T01:50:29;4.68;;;2.85;;
60478;SDS011;46321;48.398;11.754;2023-04-25T01:52:55;4.78;;;3.00;;
60478;SDS011;46321;48.398;11.754;2023-04-25T01:55:21;4.40;;;2.80;;
60478;SDS011;46321;48.398;11.754;2023-04-25T01:57:46;8.57;;;3.45;;
60478;SDS011;46321;48.398;11.754;2023-04-25T02:00:12;7.90;;;3.58;;
60478;SDS011;46321;48.398;11.754;2023-04-25T02:02:37;5.85;;;3.05;;
60478;SDS011;46321;48.398;11.754;2023-04-25T02:05:03;5.97;;;3.40;;
60478;SDS011;46321;48.398;11.754;2023-04-25T02:07:28;4.82;;;3.08;;
60478;SDS011;46321;48.398;11.754;2023-04-25T02:09:53;5.13;;;3.05;;
60478;SDS011;46321;48.398;11.754;2023-04-25T02:12:19;4.75;;;3.10;;
60478;SDS011;46321;48.398;11.754;2023-04-25T02:14:44;5.35;;;3.08;;
60478;SDS011;46321;48.398;11.754;2023-04-25T02:17:09;5.10;;;2.97;;
60478;SDS011;46321;48.398;11.754;2023-04-25T02:19:35;5.47;;;2.88;;
60478;SDS011;46321;48.398;11.754;2023-04-25T02:22:00;4.20;;;2.85;;
60478;SDS011;46321;48.398;11.754;2023-04-25T02:24:26;4.32;;;2.95;;
60478;SDS011;46321;48.398;11.754;2023-04-25T02:26:52;6.82;;;3.58;;
60478;SDS011;46321;48.398;11.754;2023-04-25T02:29:18;7.50;;;3.45;;
60478;SDS011;46321;48.398;11.754;2023-04-25T02:31:43;4.53;;;2.95;;
60478;SDS011;46321;48.398;11.754;2023-04-25T02:34:08;6.45;;;3.60;;
60478;SDS011;46321;48.398;11.754;2023-04-25T02:36:33;7.00;;;3.38;;
60478;SDS011;46321;48.398;11.754;2023-04-25T02:39:00;4.80;;;3.10;;
60478;SDS011;46321;48.398;11.754;2023-04-25T02:41:26;5.25;;;3.35;;
60478;SDS011;46321;48.398;11.754;2023-04-25T02:43:51;5.25;;;3.33;;
60478;SDS011;46321;48.398;11.754;2023-04-25T02:46:17;4.93;;;3.28;;
60478;SDS011;46321;48.398;11.754;2023-04-25T02:48:42;6.72;;;3.28;;
60478;SDS011;46321;48.398;11.754;2023-04-25T02:51:07;4.90;;;3.08;;
60478;SDS011;46321;48.398;11.754;2023-04-25T02:53:32;5.68;;;3.35;;
60478;SDS011;46321;48.398;11.754;2023-04-25T02:55:58;5.90;;;3.78;;
60478;SDS011;46321;48.398;11.754;2023-04-25T02:58:24;5.60;;;3.25;;
60478;SDS011;46321;48.398;11.754;2023-04-25T03:00:49;6.43;;;3.05;;
60478;SDS011;46321;48.398;11.754;2023-04-25T03:03:14;5.13;;;3.10;;
60478;SDS011;46321;48.398;11.754;2023-04-25T03:05:42;5.20;;;3.17;;
60478;SDS011;46321;48.398;11.754;2023-04-25T03:08:08;4.97;;;3.60;;
60478;SDS011;46321;48.398;11.754;2023-04-25T03:10:33;4.75;;;3.30;;
60478;SDS011;46321;48.398;11.754;2023-04-25T03:12:58;5.18;;;3.20;;
60478;SDS011;46321;48.398;11.754;2023-04-25T03:15:24;5.05;;;3.30;;
60478;SDS011;46321;48.398;11.754;2023-04-25T03:17:49;6.32;;;3.28;;
60478;SDS011;46321;48.398;11.754;2023-04-25T03:20:14;4.65;;;3.40;;
60478;SDS011;46321;48.398;11.754;2023-04-25T03:22:39;5.43;;;3.28;;
60478;SDS011;46321;48.398;11.754;2023-04-25T03:25:05;4.97;;;3.15;;
60478;SDS011;46321;48.398;11.754;2023-04-25T03:27:30;4.20;;;2.85;;
60478;SDS011;46321;48.398;11.754;2023-04-25T03:29:56;5.20;;;3.35;;
60478;SDS011;46321;48.398;11.754;2023-04-25T03:32:21;6.63;;;3.28;;
60478;SDS011;46321;48.398;11.754;2023-04-25T03:34:46;5.68;;;3.17;;
60478;SDS011;46321;48.398;11.754;2023-04-25T03:37:11;4.85;;;3.45;;
60478;SDS011;46321;48.398;11.754;2023-04-25T03:39:37;3.97;;;2.83;;
60478;SDS011;46321;48.398;11.754;2023-04-25T03:42:03;9.27;;;4.72;;
60478;SDS011;46321;48.398;11.754;2023-04-25T03:44:28;9.70;;;4.75;;
60478;SDS011;46321;48.398;11.754;2023-04-25T03:46:53;7.32;;;4.43;;
60478;SDS011;46321;48.398;11.754;2023-04-25T03:49:19;6.20;;;3.67;;
60478;SDS011;46321;48.398;11.754;2023-04-25T03:51:44;6.80;;;3.17;;
60478;SDS011;46321;48.398;11.754;2023-04-25T03:54:09;8.43;;;3.45;;
60478;SDS011;46321;48.398;11.754;2023-04-25T03:56:35;5.25;;;3.40;;
60478;SDS011;46321;48.398;11.754;2023-04-25T03:59:00;5.55;;;3.63;;
60478;SDS011;46321;48.398;11.754;2023-04-25T04:01:25;4.90;;;3.20;;
60478;SDS011;46321;48.398;11.754;2023-04-25T04:03:51;7.10;;;3.00;;
60478;SDS011;46321;48.398;11.754;2023-04-25T04:06:16;4.70;;;3.20;;
60478;SDS011;46321;48.398;11.754;2023-04-25T04:08:41;6.05;;;3.50;;
60478;SDS011;46321;48.398;11.754;2023-04-25T04:11:06;6.35;;;3.60;;
60478;SDS011;46321;48.398;11.754;2023-04-25T04:13:32;6.40;;;3.10;;
60478;SDS011;46321;48.398;11.754;2023-04-25T04:15:57;4.85;;;3.30;;
60478;SDS011;46321;48.398;11.754;2023-04-25T04:18:23;5.75;;;2.97;;
60478;SDS011;46321;48.398;11.754;2023-04-25T04:20:48;6.25;;;3.30;;
60478;SDS011;46321;48.398;11.754;2023-04-25T04:23:13;6.22;;;3.38;;
60478;SDS011;46321;48.398;11.754;2023-04-25T04:25:38;4.93;;;2.90;;
60478;SDS011;46321;48.398;11.754;2023-04-25T04:28:04;5.43;;;3.13;;
60478;SDS011;46321;48.398;11.754;2023-04-25T04:30:31;5.63;;;2.70;;
60478;SDS011;46321;48.398;11.754;2023-04-25T04:32:58;6.00;;;3.58;;
60478;SDS011;46321;48.398;11.754;2023-04-25T04:35:23;4.47;;;3.05;;
60478;SDS011;46321;48.398;11.754;2023-04-25T04:37:49;5.55;;;2.80;;
60478;SDS011;46321;48.398;11.754;2023-04-25T04:40:15;4.53;;;3.05;;
60478;SDS011;46321;48.398;11.754;2023-04-25T04:42:41;4.50;;;3.00;;
60478;SDS011;46321;48.398;11.754;2023-04-25T04:45:07;6.60;;;3.13;;
60478;SDS011;46321;48.398;11.754;2023-04-25T04:47:33;4.43;;;3.08;;
60478;SDS011;46321;48.398;11.754;2023-04-25T04:49:58;4.75;;;3.00;;
60478;SDS011;46321;48.398;11.754;2023-04-25T04:52:24;4.45;;;3.33;;
60478;SDS011;46321;48.398;11.754;2023-04-25T04:54:49;5.53;;;3.42;;
60478;SDS011;46321;48.398;11.754;2023-04-25T04:57:15;7.40;;;3.28;;
60478;SDS011;46321;48.398;11.754;2023-04-25T04:59:41;4.38;;;2.85;;
60478;SDS011;46321;48.398;11.754;2023-04-25T05:02:06;5.93;;;3.47;;
60478;SDS011;46321;48.398;11.754;2023-04-25T05:04:32;4.05;;;2.60;;
60478;SDS011;46321;48.398;11.754;2023-04-25T05:06:57;7.32;;;2.90;;
60478;SDS011;46321;48.398;11.754;2023-04-25T05:09:22;6.45;;;2.97;;
60478;SDS011;46321;48.398;11.754;2023-04-25T05:11:50;5.22;;;2.75;;
60478;SDS011;46321;48.398;11.754;2023-04-25T05:14:16;3.45;;;2.40;;
60478;SDS011;46321;48.398;11.754;2023-04-25T05:16:42;4.20;;;2.58;;
60478;SDS011;46321;48.398;11.754;2023-04-25T05:19:07;5.85;;;3.45;;
60478;SDS011;46321;48.398;11.754;2023-04-25T05:21:33;3.47;;;2.45;;
60478;SDS011;46321;48.398;11.754;2023-04-25T05:23:59;3.33;;;2.28;;
60478;SDS011;46321;48.398;11.754;2023-04-25T05:26:24;5.13;;;2.63;;
60478;SDS011;46321;48.398;11.754;2023-04-25T05:28:50;3.97;;;2.28;;
60478;SDS011;46321;48.398;11.754;2023-04-25T05:31:16;2.83;;;1.85;;
60478;SDS011;46321;48.398;11.754;2023-04-25T05:33:41;3.25;;;1.98;;
60478;SDS011;46321;48.398;11.754;2023-04-25T05:36:06;3.58;;;1.77;;
60478;SDS011;46321;48.398;11.754;2023-04-25T05:38:32;3.05;;;2.22;;
60478;SDS011;46321;48.398;11.754;2023-04-25T05:40:57;2.63;;;1.83;;
60478;SDS011;46321;48.398;11.754;2023-04-25T05:43:22;5.50;;;2.40;;
60478;SDS011;46321;48.398;11.754;2023-04-25T05:45:48;3.15;;;2.10;;
60478;SDS011;46321;48.398;11.754;2023-04-25T05:48:13;4.43;;;2.10;;
60478;SDS011;46321;48.398;11.754;2023-04-25T05:50:39;2.45;;;1.77;;
60478;SDS011;46321;48.398;11.754;2023-04-25T05:53:04;3.67;;;2.40;;
60478;SDS011;46321;48.398;11.754;2023-04-25T05:55:30;3.25;;;2.30;;
60478;SDS011;46321;48.398;11.754;2023-04-25T05:57:56;4.80;;;2.30;;
60478;SDS011;46321;48.398;11.754;2023-04-25T06:00:21;3.45;;;2.00;;
60478;SDS011;46321;48.398;11.754;2023-04-25T06:02:47;5.03;;;2.15;;
60478;SDS011;46321;48.398;11.754;2023-04-25T06:05:13;4.43;;;1.90;;
60478;SDS011;46321;48.398;11.754;2023-04-25T06:07:38;3.65;;;2.00;;
60478;SDS011;46321;48.398;11.754;2023-04-25T06:10:04;3.42;;;2.17;;
60478;SDS011;46321;48.398;11.754;2023-04-25T06:12:31;3.72;;;2.10;;
60478;SDS011;46321;48.398;11.754;2023-04-25T06:14:58;4.05;;;1.98;;
60478;SDS011;46321;48.398;11.754;2023-04-25T06:17:23;4.72;;;1.83;;
60478;SDS011;46321;48.398;11.754;2023-04-25T06:19:48;3.42;;;2.10;;
60478;SDS011;46321;48.398;11.754;2023-04-25T06:22:13;2.92;;;1.80;;
60478;SDS011;46321;48.398;11.754;2023-04-25T06:24:39;4.50;;;2.33;;
60478;SDS011;46321;48.398;11.754;2023-04-25T06:27:04;7.25;;;2.88;;
60478;SDS011;46321;48.398;11.754;2023-04-25T06:29:30;4.65;;;2.58;;
60478;SDS011;46321;48.398;11.754;2023-04-25T06:31:55;4.22;;;2.35;;
60478;SDS011;46321;48.398;11.754;2023-04-25T06:34:20;6.75;;;2.58;;
60478;SDS011;46321;48.398;11.754;2023-04-25T06:36:45;2.60;;;1.88;;
60478;SDS011;46321;48.398;11.754;2023-04-25T06:39:11;3.80;;;2.40;;
60478;SDS011;46321;48.398;11.754;2023-04-25T06:41:36;5.50;;;2.17;;
60478;SDS011;46321;48.398;11.754;2023-04-25T06:44:02;4.10;;;2.40;;
60478;SDS011;46321;48.398;11.754;2023-04-25T06:46:27;3.45;;;2.20;;
60478;SDS011;46321;48.398;11.754;2023-04-25T06:48:52;4.95;;;2.72;;
60478;SDS011;46321;48.398;11.754;2023-04-25T06:51:18;3.10;;;2.15;;
60478;SDS011;46321;48.398;11.754;2023-04-25T06:53:43;4.90;;;2.65;;
60478;SDS011;46321;48.398;11.754;2023-04-25T06:56:08;6.82;;;3.20;;
60478;SDS011;46321;48.398;11.754;2023-04-25T06:58:33;5.97;;;2.28;;
60478;SDS011;46321;48.398;11.754;2023-04-25T07:00:59;5.40;;;2.92;;
60478;SDS011;46321;48.398;11.754;2023-04-25T07:03:24;4.07;;;2.20;;
60478;SDS011;46321;48.398;11.754;2023-04-25T07:05:50;4.90;;;2.30;;
60478;SDS011;46321;48.398;11.754;2023-04-25T07:08:15;3.63;;;2.28;;
60478;SDS011;46321;48.398;11.754;2023-04-25T07:10:44;4.40;;;2.15;;
60478;SDS011;46321;48.398;11.754;2023-04-25T07:13:14;7.80;;;3.63;;
60478;SDS011;46321;48.398;11.754;2023-04-25T07:16:11;4.47;;;2.75;;
60478;SDS011;46321;48.398;11.754;2023-04-25T07:18:37;2.58;;;2.00;;
60478;SDS011;46321;48.398;11.754;2023-04-25T07:21:02;5.53;;;2.63;;
60478;SDS011;46321;48.398;11.754;2023-04-25T07:23:27;5.20;;;2.75;;
60478;SDS011;46321;48.398;11.754;2023-04-25T07:25:53;3.63;;;2.70;;
60478;SDS011;46321;48.398;11.754;2023-04-25T07:28:18;3.85;;;2.38;;
60478;SDS011;46321;48.398;11.754;2023-04-25T07:30:44;6.22;;;2.30;;
60478;SDS011;46321;48.398;11.754;2023-04-25T07:33:09;7.20;;;2.40;;
60478;SDS011;46321;48.398;11.754;2023-04-25T07:35:34;3.55;;;2.08;;
60478;SDS011;46321;48.398;11.754;2023-04-25T07:38:00;4.10;;;2.38;;
60478;SDS011;46321;48.398;11.754;2023-04-25T07:40:26;3.10;;;2.13;;
60478;SDS011;46321;48.398;11.754;2023-04-25T07:42:51;5.80;;;2.55;;
60478;SDS011;46321;48.398;11.754;2023-04-25T07:45:16;4.20;;;2.20;;
60478;SDS011;46321;48.398;11.754;2023-04-25T07:47:42;4.47;;;2.30;;
60478;SDS011;46321;48.398;11.754;2023-04-25T07:50:07;4.22;;;2.67;;
60478;SDS011;46321;48.398;11.754;2023-04-25T07:52:33;4.18;;;2.42;;
60478;SDS011;46321;48.398;11.754;2023-04-25T07:54:59;6.70;;;4.00;;
60478;SDS011;46321;48.398;11.754;2023-04-25T07:57:25;5.47;;;2.25;;
60478;SDS011;46321;48.398;11.754;2023-04-25T07:59:50;5.28;;;2.67;;
60478;SDS011;46321;48.398;11.754;2023-04-25T08:02:15;4.28;;;2.10;;
60478;SDS011;46321;48.398;11.754;2023-04-25T08:04:41;6.28;;;2.22;;
60478;SDS011;46321;48.398;11.754;2023-04-25T08:07:06;4.68;;;2.45;;
60478;SDS011;46321;48.398;11.754;2023-04-25T08:09:31;5.20;;;2.50;;
60478;SDS011;46321;48.398;11.754;2023-04-25T08:12:01;3.35;;;2.33;;
60478;SDS011;46321;48.398;11.754;2023-04-25T08:14:27;5.72;;;2.85;;
60478;SDS011;46321;48.398;11.754;2023-04-25T08:16:53;5.30;;;2.30;;
60478;SDS011;46321;48.398;11.754;2023-04-25T08:19:22;4.30;;;2.60;;
60478;SDS011;46321;48.398;11.754;2023-04-25T08:21:47;3.85;;;2.13;;
60478;SDS011;46321;48.398;11.754;2023-04-25T08:24:12;4.60;;;2.30;;
60478;SDS011;46321;48.398;11.754;2023-04-25T08:26:38;3.75;;;2.30;;
60478;SDS011;46321;48.398;11.754;2023-04-25T08:29:04;5.10;;;2.42;;
60478;SDS011;46321;48.398;11.754;2023-04-25T08:31:30;4.90;;;2.55;;
60478;SDS011;46321;48.398;11.754;2023-04-25T08:33:55;4.30;;;2.22;;
60478;SDS011;46321;48.398;11.754;2023-04-25T08:36:21;5.07;;;2.40;;
60478;SDS011;46321;48.398;11.754;2023-04-25T08:38:46;2.85;;;2.00;;
60478;SDS011;46321;48.398;11.754;2023-04-25T08:41:11;4.43;;;1.98;;
60478;SDS011;46321;48.398;11.754;2023-04-25T08:43:37;2.55;;;1.80;;
60478;SDS011;46321;48.398;11.754;2023-04-25T08:46:05;4.70;;;2.40;;
60478;SDS011;46321;48.398;11.754;2023-04-25T08:48:32;4.35;;;1.95;;
60478;SDS011;46321;48.398;11.754;2023-04-25T08:50:59;3.92;;;2.05;;
60478;SDS011;46321;48.398;11.754;2023-04-25T08:53:31;3.20;;;2.10;;
60478;SDS011;46321;48.398;11.754;2023-04-25T08:55:58;4.78;;;2.15;;
60478;SDS011;46321;48.398;11.754;2023-04-25T08:58:24;3.13;;;2.00;;
60478;SDS011;46321;48.398;11.754;2023-04-25T09:00:50;3.05;;;2.03;;
60478;SDS011;46321;48.398;11.754;2023-04-25T09:03:16;3.00;;;2.10;;
60478;SDS011;46321;48.398;11.754;2023-04-25T09:05:42;4.05;;;2.60;;
60478;SDS011;46321;48.398;11.754;2023-04-25T09:08:07;3.00;;;2.15;;
60478;SDS011;46321;48.398;11.754;2023-04-25T09:10:33;8.43;;;5.20;;
60478;SDS011;46321;48.398;11.754;2023-04-25T09:13:09;5.20;;;3.20;;
60478;SDS011;46321;48.398;11.754;2023-04-25T09:15:48;3.38;;;2.03;;
60478;SDS011;46321;48.398;11.754;2023-04-25T09:18:21;2.83;;;1.40;;
60478;SDS011;46321;48.398;11.754;2023-04-25T09:20:58;2.53;;;1.30;;
60478;SDS011;46321;48.398;11.754;2023-04-25T09:23:30;2.75;;;1.48;;
60478;SDS011;46321;48.398;11.754;2023-04-25T09:26:04;2.22;;;1.70;;
60478;SDS011;46321;48.398;11.754;2023-04-25T09:28:32;2.83;;;1.77;;
60478;SDS011;46321;48.398;11.754;2023-04-25T09:30:57;2.22;;;1.75;;
60478;SDS011;46321;48.398;11.754;2023-04-25T09:33:32;3.20;;;1.73;;
60478;SDS011;46321;48.398;11.754;2023-04-25T09:36:04;2.28;;;1.70;;
60478;SDS011;46321;48.398;11.754;2023-04-25T09:41:09;2.38;;;1.70;;
60478;SDS011;46321;48.398;11.754;2023-04-25T09:43:35;2.00;;;1.73;;
60478;SDS011;46321;48.398;11.754;2023-04-25T09:46:01;2.97;;;1.98;;
60478;SDS011;46321;48.398;11.754;2023-04-25T09:48:36;2.25;;;1.92;;
60478;SDS011;46321;48.398;11.754;2023-04-25T09:51:12;2.13;;;1.67;;
60478;SDS011;46321;48.398;11.754;2023-04-25T09:53:42;2.42;;;1.85;;
60478;SDS011;46321;48.398;11.754;2023-04-25T09:56:11;3.38;;;1.83;;
60478;SDS011;46321;48.398;11.754;2023-04-25T09:58:38;3.20;;;1.67;;
60478;SDS011;46321;48.398;11.754;2023-04-25T10:01:05;3.38;;;1.67;;
60478;SDS011;46321;48.398;11.754;2023-04-25T10:03:34;2.25;;;1.40;;
60478;SDS011;46321;48.398;11.754;2023-04-25T10:06:05;1.70;;;1.40;;
60478;SDS011;46321;48.398;11.754;2023-04-25T10:08:33;3.43;;;1.60;;
60478;SDS011;46321;48.398;11.754;2023-04-25T10:11:01;1.52;;;1.30;;
60478;SDS011;46321;48.398;11.754;2023-04-25T10:13:32;2.08;;;1.42;;
60478;SDS011;46321;48.398;11.754;2023-04-25T10:15:58;3.08;;;2.10;;
60478;SDS011;46321;48.398;11.754;2023-04-25T10:18:26;2.90;;;1.70;;
60478;SDS011;46321;48.398;11.754;2023-04-25T10:20:53;2.47;;;1.38;;
60478;SDS011;46321;48.398;11.754;2023-04-25T10:23:20;2.22;;;1.35;;
60478;SDS011;46321;48.398;11.754;2023-04-25T10:25:46;2.97;;;1.70;;
60478;SDS011;46321;48.398;11.754;2023-04-25T10:28:11;2.33;;;1.50;;
60478;SDS011;46321;48.398;11.754;2023-04-25T10:30:36;2.65;;;1.80;;
60478;SDS011;46321;48.398;11.754;2023-04-25T10:33:02;2.88;;;1.45;;
60478;SDS011;46321;48.398;11.754;2023-04-25T10:35:42;1.88;;;1.45;;
60478;SDS011;46321;48.398;11.754;2023-04-25T10:38:11;3.28;;;1.38;;
60478;SDS011;46321;48.398;11.754;2023-04-25T10:46:01;3.67;;;1.95;;
60478;SDS011;46321;48.398;11.754;2023-04-25T10:48:28;3.42;;;1.83;;
60478;SDS011;46321;48.398;11.754;2023-04-25T10:51:58;3.42;;;2.30;;
60478;SDS011;46321;48.398;11.754;2023-04-25T10:54:03;5.38;;;2.40;;
60478;SDS011;46321;48.398;11.754;2023-04-25T11:01:41;3.67;;;1.80;;
60478;SDS011;46321;48.398;11.754;2023-04-25T11:09:47;1.83;;;1.42;;
60478;SDS011;46321;48.398;11.754;2023-04-25T11:12:13;2.85;;;2.25;;
60478;SDS011;46321;48.398;11.754;2023-04-25T11:14:39;3.72;;;2.00;;
60478;SDS011;46321;48.398;11.754;2023-04-25T11:17:04;8.15;;;4.88;;
60478;SDS011;46321;48.398;11.754;2023-04-25T11:19:30;4.72;;;3.13;;
60478;SDS011;46321;48.398;11.754;2023-04-25T11:21:56;5.55;;;2.35;;
60478;SDS011;46321;48.398;11.754;2023-04-25T11:24:40;3.42;;;1.90;;
60478;SDS011;46321;48.398;11.754;2023-04-25T11:27:05;3.20;;;1.95;;
60478;SDS011;46321;48.398;11.754;2023-04-25T11:29:31;3.00;;;1.60;;
60478;SDS011;46321;48.398;11.754;2023-04-25T11:31:59;3.53;;;1.73;;
60478;SDS011;46321;48.398;11.754;2023-04-25T11:34:25;2.88;;;1.90;;
60478;SDS011;46321;48.398;11.754;2023-04-25T11:36:58;2.30;;;1.80;;
60478;SDS011;46321;48.398;11.754;2023-04-25T11:39:24;2.63;;;1.60;;
60478;SDS011;46321;48.398;11.754;2023-04-25T11:41:50;2.30;;;1.92;;
60478;SDS011;46321;48.398;11.754;2023-04-25T11:44:16;6.20;;;2.30;;
60478;SDS011;46321;48.398;11.754;2023-04-25T11:46:43;6.05;;;2.42;;
60478;SDS011;46321;48.398;11.754;2023-04-25T11:49:10;4.40;;;2.50;;
60478;SDS011;46321;48.398;11.754;2023-04-25T11:54:08;4.43;;;2.78;;
60478;SDS011;46321;48.398;11.754;2023-04-25T11:56:34;2.25;;;1.80;;
60478;SDS011;46321;48.398;11.754;2023-04-25T11:59:00;4.07;;;1.85;;
60478;SDS011;46321;48.398;11.754;2023-04-25T12:01:31;2.55;;;1.67;;
60478;SDS011;46321;48.398;11.754;2023-04-25T12:03:57;2.58;;;1.83;;
60478;SDS011;46321;48.398;11.754;2023-04-25T12:06:27;3.50;;;2.13;;
60478;SDS011;46321;48.398;11.754;2023-04-25T12:09:00;4.45;;;2.58;;
60478;SDS011;46321;48.398;11.754;2023-04-25T12:11:32;3.00;;;2.22;;
60478;SDS011;46321;48.398;11.754;2023-04-25T12:14:04;6.03;;;2.70;;
60478;SDS011;46321;48.398;11.754;2023-04-25T12:16:41;4.38;;;2.80;;
60478;SDS011;46321;48.398;11.754;2023-04-25T12:19:13;4.45;;;2.50;;
60478;SDS011;46321;48.398;11.754;2023-04-25T12:21:40;4.05;;;2.83;;
60478;SDS011;46321;48.398;11.754;2023-04-25T12:24:22;4.72;;;3.22;;
60478;SDS011;46321;48.398;11.754;2023-04-25T12:29:24;5.32;;;3.33;;
60478;SDS011;46321;48.398;11.754;2023-04-25T12:31:50;3.55;;;2.60;;
60478;SDS011;46321;48.398;11.754;2023-04-25T12:34:19;2.83;;;2.17;;
60478;SDS011;46321;48.398;11.754;2023-04-25T12:36:45;5.22;;;2.45;;
60478;SDS011;46321;48.398;11.754;2023-04-25T12:39:21;3.90;;;2.40;;
60478;SDS011;46321;48.398;11.754;2023-04-25T12:41:49;3.17;;;2.20;;
60478;SDS011;46321;48.398;11.754;2023-04-25T12:44:18;1.83;;;1.40;;
60478;SDS011;46321;48.398;11.754;2023-04-25T12:46:44;4.22;;;1.95;;
60478;SDS011;46321;48.398;11.754;2023-04-25T12:49:10;2.45;;;1.58;;
60478;SDS011;46321;48.398;11.754;2023-04-25T12:51:35;2.65;;;1.80;;
60478;SDS011;46321;48.398;11.754;2023-04-25T12:54:01;4.55;;;1.33;;
60478;SDS011;46321;48.398;11.754;2023-04-25T12:56:28;2.08;;;1.50;;
60478;SDS011;46321;48.398;11.754;2023-04-25T12:58:53;1.80;;;1.42;;
60478;SDS011;46321;48.398;11.754;2023-04-25T13:01:19;2.00;;;1.40;;
60478;SDS011;46321;48.398;11.754;2023-04-25T13:03:45;3.92;;;1.20;;
60478;SDS011;46321;48.398;11.754;2023-04-25T13:06:11;7.80;;;4.50;;
60478;SDS011;46321;48.398;11.754;2023-04-25T13:08:37;5.75;;;3.55;;
60478;SDS011;46321;48.398;11.754;2023-04-25T13:11:03;4.78;;;3.20;;
60478;SDS011;46321;48.398;11.754;2023-04-25T13:13:29;1.08;;;0.93;;
60478;SDS011;46321;48.398;11.754;2023-04-25T13:15:56;2.20;;;1.23;;
60478;SDS011;46321;48.398;11.754;2023-04-25T13:18:21;1.00;;;0.80;;
60478;SDS011;46321;48.398;11.754;2023-04-25T13:20:51;1.20;;;0.80;;
60478;SDS011;46321;48.398;11.754;2023-04-25T13:23:16;1.95;;;1.23;;
60478;SDS011;46321;48.398;11.754;2023-04-25T13:25:41;2.15;;;1.58;;
60478;SDS011;46321;48.398;11.754;2023-04-25T13:28:07;1.17;;;1.05;;
60478;SDS011;46321;48.398;11.754;2023-04-25T13:30:33;1.35;;;1.00;;
60478;SDS011;46321;48.398;11.754;2023-04-25T13:32:58;1.38;;;1.00;;
60478;SDS011;46321;48.398;11.754;2023-04-25T13:35:27;1.25;;;0.93;;
60478;SDS011;46321;48.398;11.754;2023-04-25T13:37:54;2.67;;;1.30;;
60478;SDS011;46321;48.398;11.754;2023-04-25T13:40:19;5.25;;;1.80;;
60478;SDS011;46321;48.398;11.754;2023-04-25T13:42:45;2.55;;;1.35;;
60478;SDS011;46321;48.398;11.754;2023-04-25T13:45:10;2.60;;;1.25;;
60478;SDS011;46321;48.398;11.754;2023-04-25T13:47:35;1.67;;;1.27;;
60478;SDS011;46321;48.398;11.754;2023-04-25T13:50:01;2.53;;;1.10;;
60478;SDS011;46321;48.398;11.754;2023-04-25T13:52:28;1.40;;;1.10;;
60478;SDS011;46321;48.398;11.754;2023-04-25T13:54:53;1.73;;;1.10;;
60478;SDS011;46321;48.398;11.754;2023-04-25T13:57:19;0.90;;;0.73;;
60478;SDS011;46321;48.398;11.754;2023-04-25T13:59:44;1.13;;;0.90;;
60478;SDS011;46321;48.398;11.754;2023-04-25T14:02:10;3.15;;;1.95;;
60478;SDS011;46321;48.398;11.754;2023-04-25T14:04:36;7.68;;;4.20;;
60478;SDS011;46321;48.398;11.754;2023-04-25T14:07:02;2.03;;;1.42;;
60478;SDS011;46321;48.398;11.754;2023-04-25T14:09:27;2.05;;;1.00;;
60478;SDS011;46321;48.398;11.754;2023-04-25T14:11:53;1.65;;;0.95;;
60478;SDS011;46321;48.398;11.754;2023-04-25T14:14:19;1.23;;;0.90;;
60478;SDS011;46321;48.398;11.754;2023-04-25T14:16:45;5.57;;;1.15;;
60478;SDS011;46321;48.398;11.754;2023-04-25T14:19:13;1.35;;;0.80;;
60478;SDS011;46321;48.398;11.754;2023-04-25T14:21:39;1.40;;;1.00;;
60478;SDS011;46321;48.398;11.754;2023-04-25T14:24:04;1.70;;;1.10;;
60478;SDS011;46321;48.398;11.754;2023-04-25T14:26:29;1.20;;;1.00;;
60478;SDS011;46321;48.398;11.754;2023-04-25T14:28:55;1.60;;;1.20;;
60478;SDS011;46321;48.398;11.754;2023-04-25T14:31:20;2.75;;;1.30;;
60478;SDS011;46321;48.398;11.754;2023-04-25T14:33:46;2.28;;;1.20;;
60478;SDS011;46321;48.398;11.754;2023-04-25T14:36:11;4.45;;;1.77;;
60478;SDS011;46321;48.398;11.754;2023-04-25T14:38:37;2.70;;;1.90;;
60478;SDS011;46321;48.398;11.754;2023-04-25T14:41:02;2.60;;;1.50;;
60478;SDS011;46321;48.398;11.754;2023-04-25T14:43:28;3.15;;;1.77;;
60478;SDS011;46321;48.398;11.754;2023-04-25T14:45:53;3.80;;;1.80;;
60478;SDS011;46321;48.398;11.754;2023-04-25T14:48:18;3.10;;;2.20;;
60478;SDS011;46321;48.398;11.754;2023-04-25T14:50:44;3.17;;;2.30;;
60478;SDS011;46321;48.398;11.754;2023-04-25T14:53:10;3.17;;;1.90;;